createdAt,value
2022-12-11T00:01:24.901Z,25.88
2022-12-11T00:03:51.060Z,25.10
2022-12-11T00:06:17.219Z,22.50
2022-12-11T00:08:43.336Z,27.65
2022-12-11T00:11:09.530Z,26.00
2022-12-11T00:13:35.697Z,25.70
2022-12-11T00:16:01.907Z,25.77
2022-12-11T00:18:28.097Z,25.55
2022-12-11T00:20:54.330Z,24.35
2022-12-11T00:23:20.545Z,28.08
2022-12-11T00:25:46.700Z,26.10
2022-12-11T00:28:12.858Z,26.17
2022-12-11T00:30:40.437Z,25.48
2022-12-11T00:33:06.632Z,27.95
2022-12-11T00:35:32.748Z,29.13
2022-12-11T00:37:58.870Z,32.08
2022-12-11T00:40:25.070Z,29.88
2022-12-11T00:42:51.205Z,27.15
2022-12-11T00:45:17.427Z,32.03
2022-12-11T00:47:43.610Z,36.55
2022-12-11T00:50:09.759Z,28.63
2022-12-11T00:52:35.946Z,29.50
2022-12-11T00:55:02.107Z,31.75
2022-12-11T00:57:28.261Z,31.45
2022-12-11T00:59:54.442Z,29.90
2022-12-11T01:02:20.587Z,29.40
2022-12-11T01:04:46.738Z,30.00
2022-12-11T01:07:12.889Z,37.17
2022-12-11T01:09:39.082Z,31.63
2022-12-11T01:12:05.283Z,31.35
2022-12-11T01:14:31.435Z,33.78
2022-12-11T01:16:57.599Z,31.42
2022-12-11T01:19:23.792Z,32.22
2022-12-11T01:21:49.911Z,29.98
2022-12-11T01:24:16.083Z,30.55
2022-12-11T01:26:42.205Z,34.17
2022-12-11T01:29:08.363Z,34.00
2022-12-11T01:31:34.552Z,33.15
2022-12-11T01:34:00.726Z,37.50
2022-12-11T01:36:26.919Z,27.27
2022-12-11T01:38:53.061Z,31.15
2022-12-11T01:41:19.219Z,29.08
2022-12-11T01:43:45.389Z,40.97
2022-12-11T01:46:11.534Z,29.52
2022-12-11T01:48:42.054Z,31.60
2022-12-11T01:51:08.540Z,33.03
2022-12-11T01:53:34.728Z,33.75
2022-12-11T01:56:00.885Z,30.27
2022-12-11T01:58:27.016Z,34.83
2022-12-11T02:00:53.257Z,31.27
2022-12-11T02:03:19.502Z,35.45
2022-12-11T02:05:45.694Z,36.42
2022-12-11T02:08:11.893Z,32.92
2022-12-11T02:10:38.062Z,28.63
2022-12-11T02:13:04.244Z,37.22
2022-12-11T02:15:30.414Z,33.47
2022-12-11T02:17:56.637Z,7.78
2022-12-11T02:20:22.776Z,30.00
2022-12-11T02:22:48.920Z,38.20
2022-12-11T02:25:15.067Z,33.60
2022-12-11T02:27:41.249Z,36.83
2022-12-11T02:30:07.425Z,33.03
2022-12-11T02:32:33.561Z,31.92
2022-12-11T02:34:59.724Z,34.13
2022-12-11T02:37:25.858Z,40.13
2022-12-11T02:39:52.032Z,32.70
2022-12-11T02:42:18.186Z,35.38
2022-12-11T02:44:44.288Z,33.75
2022-12-11T02:47:10.449Z,32.17
2022-12-11T02:49:36.618Z,34.25
2022-12-11T02:52:02.749Z,29.70
2022-12-11T02:54:28.908Z,38.72
2022-12-11T02:56:55.134Z,31.20
2022-12-11T02:59:21.294Z,33.92
2022-12-11T03:01:47.522Z,32.67
2022-12-11T03:04:13.732Z,19.67
2022-12-11T03:06:39.877Z,27.80
2022-12-11T03:09:05.983Z,21.05
2022-12-11T03:11:32.100Z,17.25
2022-12-11T03:13:58.293Z,27.95
2022-12-11T03:16:24.498Z,31.88
2022-12-11T03:18:50.676Z,30.08
2022-12-11T03:21:16.832Z,30.20
2022-12-11T03:23:42.970Z,30.55
2022-12-11T03:26:09.074Z,40.50
2022-12-11T03:28:35.240Z,34.60
2022-12-11T03:31:01.436Z,34.17
2022-12-11T03:33:27.632Z,32.08
2022-12-11T03:35:53.799Z,37.30
2022-12-11T03:38:19.995Z,39.10
2022-12-11T03:40:46.185Z,33.03
2022-12-11T03:43:12.331Z,32.78
2022-12-11T03:45:38.486Z,38.25
2022-12-11T03:48:04.672Z,37.17
2022-12-11T03:50:30.791Z,33.95
2022-12-11T03:52:56.948Z,30.88
2022-12-11T03:55:23.100Z,36.58
2022-12-11T03:57:49.213Z,38.00
2022-12-11T04:00:15.353Z,34.25
2022-12-11T04:02:41.496Z,34.42
2022-12-11T04:05:07.923Z,33.80
2022-12-11T04:07:34.308Z,42.78
2022-12-11T04:10:00.422Z,41.85
2022-12-11T04:12:26.548Z,38.35
2022-12-11T04:14:52.735Z,33.00
2022-12-11T04:17:18.846Z,34.78
2022-12-11T04:19:47.371Z,38.70
2022-12-11T04:22:13.503Z,33.90
2022-12-11T04:24:39.661Z,30.90
2022-12-11T04:27:05.820Z,32.50
2022-12-11T04:29:31.963Z,36.45
2022-12-11T04:31:58.140Z,36.22
2022-12-11T04:34:24.290Z,41.13
2022-12-11T04:36:50.486Z,45.97
2022-12-11T04:39:16.659Z,34.05
2022-12-11T04:41:42.874Z,38.28
2022-12-11T04:44:09.016Z,30.65
2022-12-11T04:46:35.201Z,35.78
2022-12-11T04:49:01.409Z,33.35
2022-12-11T04:51:27.585Z,32.80
2022-12-11T04:53:53.758Z,36.20
2022-12-11T04:56:19.919Z,35.90
2022-12-11T04:58:46.067Z,34.15
2022-12-11T05:01:12.242Z,36.72
2022-12-11T05:03:38.435Z,35.40
2022-12-11T05:06:04.617Z,29.58
2022-12-11T05:08:30.727Z,34.47
2022-12-11T05:10:56.846Z,28.40
2022-12-11T05:13:23.115Z,22.67
2022-12-11T05:15:49.244Z,26.73
2022-12-11T05:18:15.467Z,39.05
2022-12-11T05:20:41.619Z,31.33
2022-12-11T05:23:07.765Z,35.50
2022-12-11T05:25:33.978Z,37.35
2022-12-11T05:28:00.159Z,33.45
2022-12-11T05:30:26.336Z,35.35
2022-12-11T05:32:52.485Z,30.83
2022-12-11T05:35:18.642Z,30.27
2022-12-11T05:37:44.815Z,44.95
2022-12-11T05:40:11.001Z,36.40
2022-12-11T05:42:37.129Z,39.70
2022-12-11T05:45:03.327Z,36.08
2022-12-11T05:47:29.542Z,35.97
2022-12-11T05:49:55.739Z,37.75
2022-12-11T05:52:21.904Z,36.05
2022-12-11T05:54:48.043Z,33.60
2022-12-11T05:57:14.212Z,36.80
2022-12-11T05:59:40.365Z,36.38
2022-12-11T06:02:06.639Z,40.72
2022-12-11T06:04:32.830Z,37.90
2022-12-11T06:06:58.999Z,35.13
2022-12-11T06:09:25.737Z,45.83
2022-12-11T06:11:51.909Z,36.95
2022-12-11T06:14:18.060Z,39.40
2022-12-11T06:16:44.207Z,37.67
2022-12-11T06:19:10.375Z,27.85
2022-12-11T06:21:36.556Z,33.20
2022-12-11T06:24:02.715Z,33.55
2022-12-11T06:26:28.854Z,35.35
2022-12-11T06:28:54.981Z,38.45
2022-12-11T06:31:21.217Z,44.25
2022-12-11T06:33:47.402Z,41.50
2022-12-11T06:36:13.536Z,29.10
2022-12-11T06:38:39.686Z,36.38
2022-12-11T06:41:05.860Z,33.00
2022-12-11T06:43:32.010Z,41.58
2022-12-11T06:46:03.581Z,37.30
2022-12-11T06:48:30.242Z,34.97
2022-12-11T06:50:56.435Z,30.85
2022-12-11T06:53:22.567Z,38.67
2022-12-11T06:55:48.680Z,38.08
2022-12-11T06:58:14.834Z,34.78
2022-12-11T07:00:41.021Z,29.25
2022-12-11T07:03:07.199Z,39.65
2022-12-11T07:05:33.331Z,34.30
2022-12-11T07:07:59.547Z,34.83
2022-12-11T07:10:25.759Z,28.67
2022-12-11T07:12:51.887Z,43.33
2022-12-11T07:15:18.015Z,40.85
2022-12-11T07:17:44.202Z,31.75
2022-12-11T07:20:10.321Z,35.40
2022-12-11T07:22:38.373Z,36.22
2022-12-11T07:25:08.081Z,42.45
2022-12-11T07:27:34.459Z,34.28
2022-12-11T07:30:00.624Z,41.25
2022-12-11T07:32:26.918Z,47.55
2022-12-11T07:34:53.235Z,39.55
2022-12-11T07:37:19.363Z,41.88
2022-12-11T07:39:45.568Z,39.55
2022-12-11T07:42:11.742Z,37.08
2022-12-11T07:44:37.885Z,36.65
2022-12-11T07:47:04.024Z,43.67
2022-12-11T07:49:30.181Z,40.60
2022-12-11T07:51:56.347Z,42.80
2022-12-11T07:54:22.525Z,39.42
2022-12-11T07:56:53.381Z,35.65
2022-12-11T07:59:19.915Z,43.38
2022-12-11T08:01:46.028Z,40.10
2022-12-11T08:04:12.168Z,46.28
2022-12-11T08:06:38.451Z,47.78
2022-12-11T08:09:04.597Z,42.60
2022-12-11T08:11:30.737Z,39.45
2022-12-11T08:13:56.935Z,54.13
2022-12-11T08:16:23.182Z,44.78
2022-12-11T08:18:49.383Z,44.78
2022-12-11T08:21:15.620Z,45.03
2022-12-11T08:23:41.748Z,47.40
2022-12-11T08:26:07.867Z,52.97
2022-12-11T08:28:34.041Z,41.22
2022-12-11T08:31:00.220Z,43.20
2022-12-11T08:33:26.444Z,49.38
2022-12-11T08:35:52.563Z,46.25
2022-12-11T08:38:25.018Z,46.15
2022-12-11T08:40:51.693Z,37.05
2022-12-11T08:43:17.819Z,29.85
2022-12-11T08:45:44.003Z,26.13
2022-12-11T08:48:10.254Z,34.13
2022-12-11T08:50:36.473Z,45.45
2022-12-11T08:53:02.646Z,42.50
2022-12-11T08:55:28.826Z,36.67
2022-12-11T08:57:55.014Z,38.42
2022-12-11T09:00:21.141Z,46.83
2022-12-11T09:02:47.496Z,43.20
2022-12-11T09:05:13.835Z,48.20
2022-12-11T09:07:40.168Z,48.20
2022-12-11T09:10:06.441Z,54.47
2022-12-11T09:12:32.602Z,44.65
2022-12-11T09:14:58.774Z,40.50
2022-12-11T09:17:24.968Z,46.80
2022-12-11T09:19:51.134Z,40.22
2022-12-11T09:22:17.453Z,42.63
2022-12-11T09:24:43.652Z,44.00
2022-12-11T09:27:09.817Z,44.50
2022-12-11T09:29:36.000Z,46.67
2022-12-11T09:32:02.124Z,44.38
2022-12-11T09:34:29.609Z,44.42
2022-12-11T09:36:55.915Z,41.15
2022-12-11T09:39:22.043Z,40.20
2022-12-11T09:41:48.220Z,44.58
2022-12-11T09:44:14.413Z,45.47
2022-12-11T09:46:40.632Z,43.35
2022-12-11T09:49:06.877Z,47.15
2022-12-11T09:51:33.041Z,37.10
2022-12-11T09:53:59.228Z,42.05
2022-12-11T09:56:25.397Z,44.83
2022-12-11T09:58:51.512Z,53.17
2022-12-11T10:01:17.771Z,46.63
2022-12-11T10:03:43.962Z,43.72
2022-12-11T10:06:10.109Z,54.50
2022-12-11T10:08:36.312Z,48.28
2022-12-11T10:11:02.472Z,46.88
2022-12-11T10:13:28.693Z,42.35
2022-12-11T10:15:54.881Z,41.92
2022-12-11T10:18:21.022Z,40.22
2022-12-11T10:20:48.374Z,37.80
2022-12-11T10:23:14.554Z,49.33
2022-12-11T10:25:40.796Z,52.40
2022-12-11T10:28:06.995Z,46.88
2022-12-11T10:30:34.701Z,47.35
2022-12-11T10:33:01.142Z,48.53
2022-12-11T10:35:27.270Z,44.90
2022-12-11T10:37:53.465Z,47.95
2022-12-11T10:40:19.649Z,41.53
2022-12-11T10:42:45.820Z,46.88
2022-12-11T10:45:12.164Z,51.08
2022-12-11T10:53:05.312Z,37.08
2022-12-11T10:55:33.872Z,42.25
2022-12-11T10:58:03.200Z,36.42
2022-12-11T11:00:35.257Z,39.40
2022-12-11T11:03:05.859Z,41.13
2022-12-11T11:05:32.146Z,41.40
2022-12-11T11:08:01.084Z,42.72
2022-12-11T11:13:15.821Z,44.08
2022-12-11T11:15:42.019Z,39.13
2022-12-11T11:18:08.233Z,33.33
2022-12-11T11:20:34.406Z,40.95
2022-12-11T11:23:00.580Z,39.30
2022-12-11T11:25:26.722Z,37.70
2022-12-11T11:27:52.842Z,33.25
2022-12-11T11:30:19.058Z,40.88
2022-12-11T11:32:45.206Z,45.50
2022-12-11T11:35:11.805Z,39.60
2022-12-11T11:37:38.295Z,38.20
2022-12-11T11:40:04.498Z,47.75
2022-12-11T11:42:30.647Z,37.78
2022-12-11T11:44:56.815Z,40.60
2022-12-11T11:47:22.955Z,39.97
2022-12-11T11:49:49.085Z,41.05
2022-12-11T11:52:15.214Z,38.42
2022-12-11T11:54:41.393Z,39.25
2022-12-11T11:57:07.505Z,39.10
2022-12-11T11:59:33.663Z,39.50
2022-12-11T12:01:59.865Z,43.72
2022-12-11T12:04:26.037Z,32.72
2022-12-11T12:06:52.184Z,41.33
2022-12-11T12:09:18.333Z,50.25
2022-12-11T12:11:44.539Z,42.60
2022-12-11T12:14:35.813Z,43.97
2022-12-11T12:16:56.844Z,41.65
2022-12-11T12:19:23.067Z,34.35
2022-12-11T12:21:49.198Z,35.90
2022-12-11T12:24:15.334Z,40.10
2022-12-11T12:26:41.495Z,44.30
2022-12-11T12:29:07.623Z,36.40
2022-12-11T12:31:33.799Z,36.45
2022-12-11T12:33:59.995Z,39.15
2022-12-11T12:36:26.218Z,38.85
2022-12-11T12:38:52.364Z,38.58
2022-12-11T12:41:18.479Z,39.63
2022-12-11T12:43:44.753Z,40.30
2022-12-11T12:46:11.069Z,36.40
2022-12-11T12:48:37.322Z,38.25
2022-12-11T12:51:03.559Z,42.63
2022-12-11T12:53:29.760Z,36.40
2022-12-11T12:55:55.904Z,33.17
2022-12-11T12:58:22.069Z,36.08
2022-12-11T13:00:48.277Z,41.42
2022-12-11T13:03:14.524Z,37.92
2022-12-11T13:05:41.811Z,41.55
2022-12-11T13:08:07.984Z,34.80
2022-12-11T13:10:34.198Z,36.67
2022-12-11T13:13:00.405Z,29.77
2022-12-11T13:15:26.573Z,44.92
2022-12-11T13:17:52.743Z,38.13
2022-12-11T13:20:18.987Z,32.97
2022-12-11T13:22:45.158Z,42.33
2022-12-11T13:25:11.547Z,36.50
2022-12-11T13:27:38.028Z,38.33
2022-12-11T13:30:06.683Z,39.53
2022-12-11T13:32:32.810Z,39.33
2022-12-11T13:34:58.957Z,36.75
2022-12-11T13:37:25.077Z,42.78
2022-12-11T13:39:51.187Z,40.65
2022-12-11T13:42:17.605Z,39.60
2022-12-11T13:44:46.569Z,43.85
2022-12-11T13:47:12.770Z,40.55
2022-12-11T13:49:38.885Z,41.90
2022-12-11T13:52:05.061Z,37.15
2022-12-11T13:54:31.272Z,42.40
2022-12-11T13:57:00.240Z,39.85
2022-12-11T13:59:26.507Z,37.53
2022-12-11T14:01:52.694Z,37.38
2022-12-11T14:04:18.840Z,39.05
2022-12-11T14:06:44.954Z,38.95
2022-12-11T14:09:11.102Z,39.45
2022-12-11T14:11:37.231Z,38.65
2022-12-11T14:14:03.366Z,41.50
2022-12-11T14:16:29.548Z,39.95
2022-12-11T14:18:55.750Z,42.65
2022-12-11T14:21:21.893Z,46.15
2022-12-11T14:23:48.012Z,43.22
2022-12-11T14:26:17.589Z,39.17
2022-12-11T14:28:51.218Z,46.63
2022-12-11T14:31:17.988Z,44.80
2022-12-11T14:33:47.834Z,43.00
2022-12-11T14:36:13.939Z,40.90
2022-12-11T14:38:40.085Z,44.42
2022-12-11T14:41:06.209Z,46.95
2022-12-11T14:43:32.386Z,45.58
2022-12-11T14:45:58.620Z,42.55
2022-12-11T14:48:24.788Z,44.47
2022-12-11T14:50:50.941Z,48.15
2022-12-11T14:53:17.099Z,34.97
2022-12-11T14:55:43.244Z,42.33
2022-12-11T14:58:09.428Z,40.00
2022-12-11T15:00:35.552Z,43.13
2022-12-11T15:03:01.771Z,34.47
2022-12-11T15:05:27.951Z,37.55
2022-12-11T15:07:54.191Z,32.50
2022-12-11T15:10:20.578Z,46.70
2022-12-11T15:12:46.699Z,41.67
2022-12-11T15:15:12.915Z,39.58
2022-12-11T15:17:39.075Z,40.42
2022-12-11T15:20:05.245Z,48.38
2022-12-11T15:22:34.778Z,39.90
2022-12-11T15:25:00.893Z,42.95
2022-12-11T15:27:27.060Z,35.80
2022-12-11T15:29:53.256Z,39.17
2022-12-11T15:32:19.418Z,47.88
2022-12-11T15:34:45.577Z,40.08
2022-12-11T15:37:11.865Z,40.20
2022-12-11T15:39:38.049Z,41.97
2022-12-11T15:42:04.202Z,39.38
2022-12-11T15:44:30.374Z,37.40
2022-12-11T15:46:56.542Z,40.58
2022-12-11T15:49:22.713Z,41.05
2022-12-11T15:51:48.820Z,40.58
2022-12-11T15:54:14.979Z,42.85
2022-12-11T15:56:41.112Z,40.13
2022-12-11T15:59:07.258Z,40.28
2022-12-11T16:01:33.455Z,44.90
2022-12-11T16:04:04.675Z,34.92
2022-12-11T16:06:31.478Z,44.58
2022-12-11T16:08:57.644Z,41.45
2022-12-11T16:11:23.840Z,41.22
2022-12-11T16:13:50.013Z,40.17
2022-12-11T16:16:16.255Z,43.63
2022-12-11T16:18:42.424Z,51.35
2022-12-11T16:21:08.540Z,52.85
2022-12-11T16:23:34.719Z,44.80
2022-12-11T16:26:00.842Z,44.00
2022-12-11T16:28:27.010Z,45.22
2022-12-11T16:30:53.217Z,51.67
2022-12-11T16:33:19.379Z,44.40
2022-12-11T16:35:45.590Z,43.25
2022-12-11T16:38:11.778Z,43.60
2022-12-11T16:40:37.971Z,42.17
2022-12-11T16:43:04.150Z,41.28
2022-12-11T16:45:30.301Z,45.85
2022-12-11T16:47:56.645Z,51.28
2022-12-11T16:50:22.881Z,52.00
2022-12-11T16:52:49.150Z,44.80
2022-12-11T16:55:15.475Z,41.15
2022-12-11T16:57:41.702Z,43.17
2022-12-11T17:00:07.848Z,42.72
2022-12-11T17:02:34.081Z,44.15
2022-12-11T17:05:00.245Z,45.28
2022-12-11T17:07:26.428Z,48.63
2022-12-11T17:09:52.548Z,39.58
2022-12-11T17:12:18.787Z,30.67
2022-12-11T17:14:44.934Z,43.92
2022-12-11T17:17:11.063Z,50.33
2022-12-11T17:19:37.204Z,42.45
2022-12-11T17:22:03.369Z,49.75
2022-12-11T17:24:29.586Z,66.40
2022-12-11T17:26:55.725Z,61.95
2022-12-11T17:29:21.878Z,74.47
2022-12-11T17:31:48.057Z,67.15
2022-12-11T17:34:14.222Z,54.42
2022-12-11T17:36:40.405Z,51.38
2022-12-11T17:39:06.561Z,45.03
2022-12-11T17:41:32.716Z,51.10
2022-12-11T17:43:58.866Z,65.68
2022-12-11T17:46:25.049Z,70.20
2022-12-11T17:48:51.248Z,57.00
2022-12-11T17:51:17.405Z,55.25
2022-12-11T17:53:43.600Z,57.28
2022-12-11T17:56:09.704Z,53.25
2022-12-11T17:58:35.843Z,54.88
2022-12-11T18:01:01.979Z,46.53
2022-12-11T18:03:28.494Z,49.88
2022-12-11T18:05:54.736Z,52.65
2022-12-11T18:08:20.891Z,53.33
2022-12-11T18:10:47.040Z,40.92
2022-12-11T18:13:13.193Z,54.33
2022-12-11T18:15:39.436Z,59.58
2022-12-11T18:18:05.595Z,49.60
2022-12-11T18:20:31.730Z,49.08
2022-12-11T18:22:57.847Z,46.63
2022-12-11T18:25:23.997Z,47.13
2022-12-11T18:27:50.370Z,44.95
2022-12-11T18:30:16.517Z,43.38
2022-12-11T18:32:42.713Z,41.10
2022-12-11T18:35:08.936Z,38.45
2022-12-11T18:37:35.161Z,38.88
2022-12-11T18:40:01.362Z,45.33
2022-12-11T18:42:34.626Z,46.20
2022-12-11T18:45:00.771Z,41.72
2022-12-11T18:47:26.959Z,40.80
2022-12-11T18:49:53.084Z,40.67
2022-12-11T18:52:19.212Z,50.85
2022-12-11T18:54:45.370Z,45.53
2022-12-11T18:57:11.549Z,42.05
2022-12-11T18:59:37.684Z,43.20
2022-12-11T19:02:03.821Z,46.95
2022-12-11T19:04:30.021Z,38.65
2022-12-11T19:06:56.201Z,41.95
2022-12-11T19:09:22.321Z,40.40
2022-12-11T19:11:48.512Z,45.30
2022-12-11T19:14:14.657Z,38.95
2022-12-11T19:16:40.817Z,41.80
2022-12-11T19:19:06.969Z,49.28
2022-12-11T19:21:33.083Z,42.72
2022-12-11T19:23:59.264Z,42.22
2022-12-11T19:26:25.462Z,44.60
2022-12-11T19:28:51.603Z,37.50
2022-12-11T19:31:17.767Z,41.15
2022-12-11T19:33:43.984Z,42.00
2022-12-11T19:36:10.189Z,46.53
2022-12-11T19:38:36.331Z,42.03
2022-12-11T19:41:02.543Z,42.55
2022-12-11T19:43:28.721Z,46.35
2022-12-11T19:45:54.847Z,44.20
2022-12-11T19:48:21.002Z,55.03
2022-12-11T19:50:47.214Z,47.40
2022-12-11T19:53:13.359Z,45.22
2022-12-11T19:55:39.521Z,42.78
2022-12-11T19:58:05.688Z,48.03
2022-12-11T20:00:31.895Z,56.58
2022-12-11T20:02:58.104Z,47.47
2022-12-11T20:05:24.330Z,40.03
2022-12-11T20:07:50.503Z,44.88
2022-12-11T20:10:16.714Z,47.13
2022-12-11T20:12:42.887Z,40.58
2022-12-11T20:15:09.112Z,44.65
2022-12-11T20:17:35.363Z,48.58
2022-12-11T20:20:01.591Z,47.22
2022-12-11T20:22:27.794Z,43.15
2022-12-11T20:24:54.004Z,53.28
2022-12-11T20:27:20.186Z,58.47
2022-12-11T20:29:46.328Z,53.08
2022-12-11T20:32:12.684Z,43.97
2022-12-11T20:34:38.916Z,48.28
2022-12-11T20:37:05.027Z,36.70
2022-12-11T20:39:31.235Z,38.30
2022-12-11T20:41:57.374Z,36.30
2022-12-11T20:44:23.541Z,35.95
2022-12-11T20:46:49.692Z,40.15
2022-12-11T20:49:15.821Z,41.05
2022-12-11T20:51:41.946Z,43.53
2022-12-11T20:54:08.339Z,37.10
2022-12-11T20:56:34.472Z,37.47
2022-12-11T20:59:00.675Z,44.28
2022-12-11T21:01:26.866Z,37.22
2022-12-11T21:03:53.008Z,43.63
2022-12-11T21:06:19.195Z,41.92
2022-12-11T21:08:45.354Z,44.17
2022-12-11T21:11:11.526Z,38.33
2022-12-11T21:13:37.692Z,41.15
2022-12-11T21:16:03.897Z,36.55
2022-12-11T21:18:30.083Z,44.83
2022-12-11T21:20:56.219Z,40.42
2022-12-11T21:23:22.380Z,37.83
2022-12-11T21:25:48.552Z,37.38
2022-12-11T21:28:14.664Z,47.33
2022-12-11T21:30:40.837Z,39.95
2022-12-11T21:33:07.044Z,37.97
2022-12-11T21:35:33.222Z,43.13
2022-12-11T21:37:59.417Z,39.42
2022-12-11T21:40:25.560Z,40.25
2022-12-11T21:42:51.756Z,48.38
2022-12-11T21:48:05.034Z,34.42
2022-12-11T21:50:31.201Z,44.03
2022-12-11T21:52:57.393Z,36.80
2022-12-11T21:55:23.583Z,39.85
2022-12-11T21:57:49.746Z,35.92
2022-12-11T22:00:15.926Z,46.50
2022-12-11T22:02:42.245Z,42.75
2022-12-11T22:05:08.547Z,39.00
2022-12-11T22:07:34.720Z,38.70
2022-12-11T22:10:00.919Z,41.42
2022-12-11T22:12:27.129Z,39.67
2022-12-11T22:14:53.294Z,47.08
2022-12-11T22:17:19.433Z,37.88
2022-12-11T22:19:45.602Z,42.45
2022-12-11T22:22:11.889Z,43.78
2022-12-11T22:24:38.076Z,41.38
2022-12-11T22:27:04.252Z,45.50
2022-12-11T22:29:30.406Z,42.22
2022-12-11T22:31:56.573Z,38.55
2022-12-11T22:34:22.773Z,37.03
2022-12-11T22:36:49.193Z,40.20
2022-12-11T22:39:15.352Z,45.30
2022-12-11T22:41:41.535Z,40.90
2022-12-11T22:44:07.722Z,48.30
2022-12-11T22:46:33.885Z,45.42
2022-12-11T22:49:00.046Z,36.70
2022-12-11T22:51:26.248Z,40.45
2022-12-11T22:53:52.396Z,47.63
2022-12-11T22:56:18.567Z,43.90
2022-12-11T22:58:44.687Z,41.88
2022-12-11T23:01:10.834Z,42.42
2022-12-11T23:03:37.041Z,42.72
2022-12-11T23:06:05.417Z,38.38
2022-12-11T23:08:31.694Z,38.67
2022-12-11T23:10:57.932Z,35.63
2022-12-11T23:13:24.063Z,45.25
2022-12-11T23:15:50.193Z,48.10
2022-12-11T23:18:16.366Z,40.78
2022-12-11T23:20:42.511Z,42.78
2022-12-11T23:23:08.670Z,38.58
2022-12-11T23:25:34.845Z,39.90
2022-12-11T23:28:00.973Z,36.53
2022-12-11T23:30:27.140Z,40.75
2022-12-11T23:32:53.301Z,39.05
2022-12-11T23:35:19.414Z,40.15
2022-12-11T23:37:45.529Z,39.78
2022-12-11T23:40:11.699Z,48.20
2022-12-11T23:42:37.878Z,43.53
2022-12-11T23:45:04.059Z,44.65
2022-12-11T23:47:30.255Z,38.42
2022-12-11T23:49:56.374Z,39.78
2022-12-11T23:52:22.546Z,44.47
2022-12-11T23:54:48.744Z,40.67
2022-12-11T23:57:14.911Z,41.15
2022-12-11T23:59:41.081Z,43.25
